Time;durP1;ratioP1;P1;durP2;ratioP2;P2;SDS_P1;SDS_P2;PMS_P1;PMS_P2;Temp;Humidity;BMP_temperature;BMP_pressure;BME280_temperature;BME280_humidity;BME280_pressure;Samples;Min_cycle;Max_cycle;Signal;HPM_P1;HPM_P2
2023/02/10 00:01:17;;;;;;;45.60;27.90;;;;;;;;;;5059702;28;20181;-73
2023/02/10 00:03:43;;;;;;;45.13;27.20;;;;;;;;;;5059738;28;20177;-73
2023/02/10 00:06:10;;;;;;;48.80;26.35;;;;;;;;;;5042187;28;20201;-73
2023/02/10 00:08:36;;;;;;;46.15;28.25;;;;;;;;;;5039481;28;20189;-73
2023/02/10 00:11:04;;;;;;;49.22;28.15;;;;;;;;;;5039411;28;20185;-73
2023/02/10 00:13:30;;;;;;;44.85;26.95;;;;;;;;;;5039615;28;20518;-73
2023/02/10 00:16:00;;;;;;;48.38;28.10;;;;;;;;;;5039268;28;20206;-73
2023/02/10 00:18:26;;;;;;;50.05;25.90;;;;;;;;;;5038727;28;20197;-73
2023/02/10 00:20:52;;;;;;;45.63;27.52;;;;;;;;;;5038962;28;20182;-73
2023/02/10 00:23:18;;;;;;;50.87;29.30;;;;;;;;;;5039196;28;20177;-73
2023/02/10 00:25:44;;;;;;;42.70;24.88;;;;;;;;;;5038836;28;20960;-73
2023/02/10 00:28:10;;;;;;;47.25;26.02;;;;;;;;;;5038863;28;20191;-74
2023/02/10 00:30:37;;;;;;;40.70;25.65;;;;;;;;;;5038342;28;20170;-73
2023/02/10 00:33:03;;;;;;;49.10;26.00;;;;;;;;;;5038939;28;20265;-73
2023/02/10 00:35:29;;;;;;;46.90;25.90;;;;;;;;;;5038235;28;20291;-73
2023/02/10 00:37:55;;;;;;;50.38;28.17;;;;;;;;;;5039344;28;20412;-73
2023/02/10 00:40:21;;;;;;;44.63;28.10;;;;;;;;;;5038054;28;20214;-73
2023/02/10 00:42:47;;;;;;;41.45;25.67;;;;;;;;;;5038250;28;20906;-72
2023/02/10 00:45:13;;;;;;;49.10;24.07;;;;;;;;;;5038648;28;20217;-73
2023/02/10 00:47:39;;;;;;;53.60;27.20;;;;;;;;;;5038622;28;20405;-73
2023/02/10 00:50:05;;;;;;;51.95;26.33;;;;;;;;;;5038221;28;20397;-74
2023/02/10 00:52:31;;;;;;;42.95;26.48;;;;;;;;;;5037449;28;20178;-73
2023/02/10 00:54:57;;;;;;;44.58;27.10;;;;;;;;;;5038420;28;20660;-74
2023/02/10 00:57:23;;;;;;;44.00;26.95;;;;;;;;;;5037736;28;20226;-74
2023/02/10 00:59:49;;;;;;;62.93;27.83;;;;;;;;;;5038000;28;20185;-75
2023/02/10 01:02:15;;;;;;;45.77;28.10;;;;;;;;;;5038061;28;20408;-73
2023/02/10 01:04:41;;;;;;;41.40;27.55;;;;;;;;;;5038201;28;20408;-75
2023/02/10 01:07:07;;;;;;;55.83;27.77;;;;;;;;;;5070242;28;20210;-75
2023/02/10 01:09:33;;;;;;;57.15;27.48;;;;;;;;;;5038190;28;20409;-75
2023/02/10 01:11:59;;;;;;;57.83;28.48;;;;;;;;;;5037944;28;20227;-75
2023/02/10 01:14:25;;;;;;;52.40;27.13;;;;;;;;;;5037803;28;20186;-75
2023/02/10 01:16:51;;;;;;;45.58;26.25;;;;;;;;;;5038311;28;20189;-75
2023/02/10 01:19:17;;;;;;;54.03;30.23;;;;;;;;;;5037026;28;20308;-75
2023/02/10 01:21:43;;;;;;;45.67;27.30;;;;;;;;;;5038164;28;20405;-75
2023/02/10 01:24:09;;;;;;;51.53;27.80;;;;;;;;;;5037399;28;20181;-75
2023/02/10 01:26:35;;;;;;;48.22;27.55;;;;;;;;;;5037486;28;20472;-75
2023/02/10 01:29:01;;;;;;;47.47;28.27;;;;;;;;;;5037927;28;20590;-75
2023/02/10 01:31:28;;;;;;;51.92;28.58;;;;;;;;;;5037480;28;20405;-75
2023/02/10 01:33:54;;;;;;;47.08;27.40;;;;;;;;;;5037703;28;20589;-74
2023/02/10 01:36:22;;;;;;;59.88;29.25;;;;;;;;;;5069744;28;20194;-75
2023/02/10 01:38:48;;;;;;;51.53;27.58;;;;;;;;;;5069578;28;20254;-75
2023/02/10 01:41:16;;;;;;;46.15;27.08;;;;;;;;;;5037370;28;20234;-75
2023/02/10 01:44:00;;;;;;;50.58;29.58;;;;;;;;;;5037364;28;20202;-75
2023/02/10 01:46:27;;;;;;;50.38;29.17;;;;;;;;;;5036972;28;20241;-75
2023/02/10 01:48:55;;;;;;;53.05;28.50;;;;;;;;;;5037026;28;20213;-75
2023/02/10 01:51:25;;;;;;;55.70;31.08;;;;;;;;;;5037697;28;20581;-75
2023/02/10 01:53:52;;;;;;;45.25;27.08;;;;;;;;;;5036895;28;20709;-75
2023/02/10 01:56:18;;;;;;;51.15;28.20;;;;;;;;;;5035661;28;20233;-75
2023/02/10 01:58:44;;;;;;;45.53;29.48;;;;;;;;;;5037444;28;20190;-75
2023/02/10 02:01:10;;;;;;;51.45;29.13;;;;;;;;;;5037239;28;20688;-75
2023/02/10 02:03:39;;;;;;;52.53;28.48;;;;;;;;;;5037132;28;20181;-75
2023/02/10 02:06:05;;;;;;;46.08;28.60;;;;;;;;;;5053633;28;20622;-75
2023/02/10 02:08:31;;;;;;;45.67;28.00;;;;;;;;;;5056874;28;20519;-75
2023/02/10 02:11:12;;;;;;;43.35;26.60;;;;;;;;;;5057096;28;20177;-75
2023/02/10 02:13:41;;;;;;;53.58;27.45;;;;;;;;;;5057106;28;20169;-75
2023/02/10 02:16:16;;;;;;;45.40;26.45;;;;;;;;;;5057173;28;20623;-75
2023/02/10 02:19:00;;;;;;;52.95;28.38;;;;;;;;;;5056706;28;20177;-75
2023/02/10 02:21:35;;;;;;;60.13;28.75;;;;;;;;;;5056943;28;20486;-75
2023/02/10 02:24:22;;;;;;;49.85;27.88;;;;;;;;;;5056804;28;20211;-75
2023/02/10 02:26:57;;;;;;;50.00;27.65;;;;;;;;;;5056427;28;20189;-75
2023/02/10 02:29:32;;;;;;;45.42;28.08;;;;;;;;;;5057168;28;20285;-75
2023/02/10 02:32:00;;;;;;;43.80;27.10;;;;;;;;;;5057113;28;20179;-75
2023/02/10 02:34:39;;;;;;;47.85;29.33;;;;;;;;;;5056643;28;20177;-75
2023/02/10 02:37:11;;;;;;;39.63;24.67;;;;;;;;;;5056670;28;20221;-75
2023/02/10 02:39:37;;;;;;;52.53;27.92;;;;;;;;;;5056398;28;20163;-75
2023/02/10 02:42:18;;;;;;;52.63;27.77;;;;;;;;;;5056775;28;20182;-75
2023/02/10 02:44:46;;;;;;;48.28;28.00;;;;;;;;;;5056881;28;20412;-75
2023/02/10 02:47:23;;;;;;;48.42;28.17;;;;;;;;;;5056825;28;20443;-75
2023/02/10 02:49:57;;;;;;;44.88;27.67;;;;;;;;;;5056445;28;20197;-75
2023/02/10 02:52:46;;;;;;;44.75;26.83;;;;;;;;;;5056496;28;20188;-75
2023/02/10 02:55:22;;;;;;;44.20;25.80;;;;;;;;;;5019159;28;20241;-75
2023/02/10 02:57:57;;;;;;;45.95;26.48;;;;;;;;;;5057446;28;20230;-75
2023/02/10 03:00:25;;;;;;;47.80;27.05;;;;;;;;;;5056450;28;20181;-75
2023/02/10 03:02:52;;;;;;;50.60;28.65;;;;;;;;;;5056677;28;20169;-75
2023/02/10 03:05:23;;;;;;;54.33;31.75;;;;;;;;;;5048930;28;20174;-75
2023/02/10 03:07:49;;;;;;;52.50;30.25;;;;;;;;;;5039580;28;20178;-75
2023/02/10 03:10:15;;;;;;;48.80;27.10;;;;;;;;;;5040152;28;20182;-75
2023/02/10 03:12:41;;;;;;;51.90;27.63;;;;;;;;;;5040284;28;20954;-75
2023/02/10 03:15:07;;;;;;;49.77;27.47;;;;;;;;;;5040203;28;20182;-75
2023/02/10 03:17:33;;;;;;;44.97;27.63;;;;;;;;;;5038678;28;20432;-75
2023/02/10 03:19:59;;;;;;;47.75;26.75;;;;;;;;;;5040254;28;20247;-75
2023/02/10 03:22:25;;;;;;;42.37;25.70;;;;;;;;;;5040143;28;20228;-75
2023/02/10 03:24:51;;;;;;;49.50;27.50;;;;;;;;;;5038761;28;20922;-75
2023/02/10 03:27:17;;;;;;;55.97;28.30;;;;;;;;;;5038398;28;20905;-75
2023/02/10 03:29:43;;;;;;;47.43;26.83;;;;;;;;;;5040474;28;20431;-75
2023/02/10 03:32:09;;;;;;;48.93;26.70;;;;;;;;;;5038996;28;20471;-75
2023/02/10 03:34:35;;;;;;;43.57;26.00;;;;;;;;;;5039742;28;20894;-75
2023/02/10 03:37:01;;;;;;;46.30;26.23;;;;;;;;;;5039513;28;20474;-75
2023/02/10 03:39:27;;;;;;;49.95;27.17;;;;;;;;;;5039626;28;20405;-75
2023/02/10 03:41:53;;;;;;;46.67;26.53;;;;;;;;;;5039898;28;20186;-75
2023/02/10 03:44:20;;;;;;;47.55;28.40;;;;;;;;;;5039999;28;20397;-75
2023/02/10 03:46:46;;;;;;;48.47;26.27;;;;;;;;;;5039616;28;20229;-75
2023/02/10 03:49:12;;;;;;;45.92;24.88;;;;;;;;;;5039351;28;20178;-75
2023/02/10 03:51:38;;;;;;;52.00;28.80;;;;;;;;;;5038950;28;20186;-75
2023/02/10 03:54:04;;;;;;;61.83;28.45;;;;;;;;;;5038460;28;20913;-75
2023/02/10 03:56:30;;;;;;;45.70;26.98;;;;;;;;;;5037379;28;20233;-75
2023/02/10 03:58:56;;;;;;;44.38;25.98;;;;;;;;;;5039118;28;20190;-75
2023/02/10 04:01:21;;;;;;;46.00;26.87;;;;;;;;;;5039170;28;20178;-76
2023/02/10 04:03:47;;;;;;;42.37;26.00;;;;;;;;;;5038724;28;20401;-75
2023/02/10 04:06:14;;;;;;;48.17;27.02;;;;;;;;;;5038714;28;20464;-75
2023/02/10 04:08:40;;;;;;;55.47;29.08;;;;;;;;;;5070902;28;20206;-75
2023/02/10 04:11:07;;;;;;;59.35;28.50;;;;;;;;;;5039187;28;20526;-75
2023/02/10 04:13:33;;;;;;;40.55;26.00;;;;;;;;;;5039195;28;20261;-75
2023/02/10 04:16:27;;;;;;;54.53;26.88;;;;;;;;;;5038227;28;20178;-75
2023/02/10 04:18:53;;;;;;;49.40;28.20;;;;;;;;;;5037364;28;20189;-75
2023/02/10 04:21:20;;;;;;;53.15;27.50;;;;;;;;;;5039207;28;20188;-75
2023/02/10 04:23:46;;;;;;;53.15;26.23;;;;;;;;;;5038299;28;20216;-75
2023/02/10 04:26:12;;;;;;;52.77;26.50;;;;;;;;;;5038771;28;20209;-75
2023/02/10 04:28:38;;;;;;;51.92;25.67;;;;;;;;;;5037662;28;20429;-75
2023/02/10 04:31:05;;;;;;;43.13;25.70;;;;;;;;;;5038328;28;20177;-75
2023/02/10 04:33:31;;;;;;;43.85;26.65;;;;;;;;;;5038364;28;20443;-75
2023/02/10 04:35:57;;;;;;;48.80;26.63;;;;;;;;;;5038719;28;20192;-75
2023/02/10 04:38:23;;;;;;;45.90;27.15;;;;;;;;;;5038445;28;20316;-79
2023/02/10 04:40:49;;;;;;;49.70;27.42;;;;;;;;;;5039084;28;20207;-75
2023/02/10 04:43:16;;;;;;;53.50;29.27;;;;;;;;;;5038060;28;20566;-75
2023/02/10 04:45:42;;;;;;;46.92;26.25;;;;;;;;;;5038300;28;20845;-75
2023/02/10 04:48:08;;;;;;;48.78;27.00;;;;;;;;;;5038297;28;20178;-75
2023/02/10 04:50:36;;;;;;;52.63;25.15;;;;;;;;;;5038372;28;20190;-75
2023/02/10 04:53:02;;;;;;;45.35;27.65;;;;;;;;;;5038351;28;20172;-75
2023/02/10 04:55:28;;;;;;;55.92;28.27;;;;;;;;;;5037835;28;20180;-75
2023/02/10 04:57:54;;;;;;;43.13;25.53;;;;;;;;;;5038131;28;20220;-75
2023/02/10 05:00:20;;;;;;;53.03;27.93;;;;;;;;;;5038659;28;20458;-75
2023/02/10 05:02:46;;;;;;;44.47;28.02;;;;;;;;;;5038422;28;20415;-75
2023/02/10 05:05:12;;;;;;;60.50;26.67;;;;;;;;;;5038574;28;20264;-75
2023/02/10 05:07:39;;;;;;;52.63;27.15;;;;;;;;;;5036708;28;20494;-75
2023/02/10 05:10:05;;;;;;;45.70;26.67;;;;;;;;;;5036493;28;20205;-75
2023/02/10 05:12:31;;;;;;;57.75;27.70;;;;;;;;;;5037831;28;20257;-75
2023/02/10 05:14:57;;;;;;;48.30;26.87;;;;;;;;;;5037999;28;20211;-74
2023/02/10 05:17:23;;;;;;;51.37;27.53;;;;;;;;;;5038498;28;20476;-75
2023/02/10 05:19:49;;;;;;;52.90;27.27;;;;;;;;;;5037991;28;20406;-75
2023/02/10 05:22:15;;;;;;;61.03;27.50;;;;;;;;;;5037784;28;20399;-75
2023/02/10 05:24:41;;;;;;;52.83;28.67;;;;;;;;;;5037857;28;20427;-75
2023/02/10 05:27:07;;;;;;;47.40;27.17;;;;;;;;;;5037636;28;20964;-75
2023/02/10 05:29:33;;;;;;;48.70;26.35;;;;;;;;;;5036185;28;20196;-75
2023/02/10 05:31:59;;;;;;;49.70;30.10;;;;;;;;;;5037502;28;20191;-75
2023/02/10 05:34:26;;;;;;;52.97;26.80;;;;;;;;;;5037793;28;20413;-75
2023/02/10 05:36:52;;;;;;;55.58;28.15;;;;;;;;;;5038372;28;20403;-75
2023/02/10 05:39:24;;;;;;;58.13;28.23;;;;;;;;;;5037869;28;20236;-75
2023/02/10 05:41:55;;;;;;;45.47;24.23;;;;;;;;;;5037666;28;20154;-75
2023/02/10 05:44:21;;;;;;;61.90;28.45;;;;;;;;;;5038009;28;20275;-75
2023/02/10 05:46:47;;;;;;;55.87;27.70;;;;;;;;;;5037196;28;21085;-75
2023/02/10 05:49:13;;;;;;;58.50;27.60;;;;;;;;;;5036323;28;20434;-75
2023/02/10 05:51:39;;;;;;;54.95;28.65;;;;;;;;;;5037058;28;20178;-75
2023/02/10 05:54:05;;;;;;;54.00;27.77;;;;;;;;;;5037414;28;20185;-75
2023/02/10 05:56:31;;;;;;;58.92;29.05;;;;;;;;;;5037054;28;20225;-75
2023/02/10 05:58:57;;;;;;;64.30;28.83;;;;;;;;;;5036178;28;20618;-75
2023/02/10 06:01:23;;;;;;;56.22;29.05;;;;;;;;;;5037677;28;20487;-75
2023/02/10 06:03:49;;;;;;;50.30;26.33;;;;;;;;;;5037144;28;20178;-75
2023/02/10 06:06:15;;;;;;;59.40;28.87;;;;;;;;;;5037239;28;20209;-75
2023/02/10 06:08:41;;;;;;;57.33;30.87;;;;;;;;;;5068881;28;20520;-75
2023/02/10 06:11:07;;;;;;;57.40;29.20;;;;;;;;;;5037111;28;20436;-75
2023/02/10 06:13:33;;;;;;;53.45;28.30;;;;;;;;;;5036971;28;20542;-75
2023/02/10 06:16:01;;;;;;;52.40;28.93;;;;;;;;;;5036823;28;20266;-75
2023/02/10 06:18:27;;;;;;;58.88;29.52;;;;;;;;;;5037533;28;20442;-75
2023/02/10 06:20:53;;;;;;;56.20;28.63;;;;;;;;;;5037190;28;20182;-74
2023/02/10 06:23:20;;;;;;;57.63;29.40;;;;;;;;;;5035866;28;20174;-75
2023/02/10 06:25:46;;;;;;;58.80;29.00;;;;;;;;;;5037472;28;20926;-75
2023/02/10 06:28:12;;;;;;;61.90;30.92;;;;;;;;;;5037503;28;20190;-75
2023/02/10 06:30:38;;;;;;;66.32;28.55;;;;;;;;;;5035894;28;20171;-75
2023/02/10 06:33:04;;;;;;;58.83;29.13;;;;;;;;;;5037266;28;20512;-74
2023/02/10 06:35:30;;;;;;;49.35;28.77;;;;;;;;;;5037480;28;20480;-75
2023/02/10 06:37:56;;;;;;;60.70;29.30;;;;;;;;;;5037340;28;20664;-75
2023/02/10 06:40:22;;;;;;;53.33;29.10;;;;;;;;;;5040195;28;20416;-75
2023/02/10 06:42:48;;;;;;;67.37;31.13;;;;;;;;;;5040607;28;20412;-75
2023/02/10 06:45:14;;;;;;;52.70;27.45;;;;;;;;;;5041219;28;20703;-75
2023/02/10 06:47:40;;;;;;;64.45;30.15;;;;;;;;;;5040378;28;20260;-75
2023/02/10 06:50:06;;;;;;;57.35;28.00;;;;;;;;;;5040951;28;20571;-75
2023/02/10 06:52:34;;;;;;;60.40;29.80;;;;;;;;;;5040313;28;20181;-78
2023/02/10 06:55:00;;;;;;;57.47;30.67;;;;;;;;;;5040332;28;20209;-75
2023/02/10 06:57:26;;;;;;;63.05;30.83;;;;;;;;;;5072315;28;20539;-75
2023/02/10 06:59:52;;;;;;;59.05;29.05;;;;;;;;;;5040200;28;20186;-75
2023/02/10 07:02:19;;;;;;;64.90;29.00;;;;;;;;;;5040451;28;20179;-75
2023/02/10 07:04:45;;;;;;;56.90;31.83;;;;;;;;;;5039682;28;20762;-75
2023/02/10 07:07:11;;;;;;;62.05;28.88;;;;;;;;;;5040640;28;20205;-75
2023/02/10 07:09:37;;;;;;;59.13;27.80;;;;;;;;;;5040273;28;20590;-75
2023/02/10 07:12:03;;;;;;;53.92;28.15;;;;;;;;;;5040684;28;20849;-75
2023/02/10 07:14:29;;;;;;;61.53;30.10;;;;;;;;;;5041010;28;20264;-75
2023/02/10 07:16:55;;;;;;;80.40;31.10;;;;;;;;;;5040204;28;20214;-75
2023/02/10 07:19:21;;;;;;;67.60;29.20;;;;;;;;;;5040235;28;20413;-75
2023/02/10 07:21:47;;;;;;;65.00;31.98;;;;;;;;;;5040459;28;20488;-75
2023/02/10 07:24:14;;;;;;;55.40;30.00;;;;;;;;;;5040379;28;20699;-73
2023/02/10 07:26:40;;;;;;;69.05;30.40;;;;;;;;;;5040068;28;20460;-75
2023/02/10 07:29:06;;;;;;;66.65;31.98;;;;;;;;;;5040350;28;20183;-75
2023/02/10 07:31:35;;;;;;;60.67;31.40;;;;;;;;;;5039747;28;20189;-75
2023/02/10 07:34:01;;;;;;;67.38;31.85;;;;;;;;;;5040303;28;20199;-75
2023/02/10 07:36:27;;;;;;;64.10;31.30;;;;;;;;;;5039899;28;20182;-75
2023/02/10 07:38:53;;;;;;;57.90;28.45;;;;;;;;;;5038838;28;20173;-75
2023/02/10 07:41:19;;;;;;;68.27;30.83;;;;;;;;;;5039973;28;20190;-75
2023/02/10 07:43:45;;;;;;;69.13;31.80;;;;;;;;;;5039328;28;20494;-75
2023/02/10 07:46:11;;;;;;;61.17;32.03;;;;;;;;;;5039480;28;20467;-75
2023/02/10 07:48:37;;;;;;;69.25;31.50;;;;;;;;;;5039436;28;20465;-75
2023/02/10 07:51:03;;;;;;;63.55;30.25;;;;;;;;;;5040142;28;20172;-75
2023/02/10 07:53:29;;;;;;;63.35;29.52;;;;;;;;;;5040243;28;20182;-75
2023/02/10 07:55:57;;;;;;;68.70;31.55;;;;;;;;;;5039708;28;20222;-75
2023/02/10 07:58:24;;;;;;;56.03;31.00;;;;;;;;;;5039816;28;20180;-75
2023/02/10 08:00:50;;;;;;;70.97;33.13;;;;;;;;;;5039661;28;20200;-75
2023/02/10 08:03:16;;;;;;;66.20;34.15;;;;;;;;;;5039679;28;20404;-75
2023/02/10 08:05:42;;;;;;;70.60;33.38;;;;;;;;;;5039128;28;20235;-75
2023/02/10 08:08:08;;;;;;;77.45;34.90;;;;;;;;;;5039315;28;20283;-75
2023/02/10 08:10:34;;;;;;;69.85;34.72;;;;;;;;;;5039496;28;20176;-75
2023/02/10 08:13:00;;;;;;;67.13;33.72;;;;;;;;;;5039500;28;20321;-75
2023/02/10 08:15:26;;;;;;;71.27;34.60;;;;;;;;;;5038787;28;20212;-75
2023/02/10 08:17:52;;;;;;;76.33;35.27;;;;;;;;;;5039003;28;20420;-75
2023/02/10 08:20:18;;;;;;;74.27;34.57;;;;;;;;;;5039104;28;20473;-75
2023/02/10 08:22:44;;;;;;;74.57;35.70;;;;;;;;;;5039322;28;20959;-75
2023/02/10 08:25:10;;;;;;;82.03;37.33;;;;;;;;;;5039430;28;20264;-75
2023/02/10 08:27:36;;;;;;;76.67;35.60;;;;;;;;;;5038740;28;20529;-75
2023/02/10 08:30:05;;;;;;;80.85;35.03;;;;;;;;;;5039223;28;20764;-75
2023/02/10 08:32:31;;;;;;;79.10;35.85;;;;;;;;;;5039694;28;20545;-75
2023/02/10 08:34:57;;;;;;;73.28;37.03;;;;;;;;;;5038661;28;20175;-75
2023/02/10 08:37:23;;;;;;;72.30;33.25;;;;;;;;;;5038862;28;20177;-75
2023/02/10 08:39:49;;;;;;;74.85;35.72;;;;;;;;;;5038923;28;20533;-75
2023/02/10 08:42:15;;;;;;;72.63;34.37;;;;;;;;;;5039110;28;20209;-75
2023/02/10 08:44:41;;;;;;;77.17;34.40;;;;;;;;;;5038453;28;20406;-75
2023/02/10 08:47:10;;;;;;;65.53;33.07;;;;;;;;;;5038821;28;20814;-75
2023/02/10 08:49:36;;;;;;;79.18;36.92;;;;;;;;;;5039012;28;20474;-77
2023/02/10 08:52:03;;;;;;;81.50;35.73;;;;;;;;;;5037273;28;20188;-77
2023/02/10 08:54:29;;;;;;;70.15;35.83;;;;;;;;;;5033178;28;20419;-78
2023/02/10 08:56:55;;;;;;;71.17;34.40;;;;;;;;;;5038002;28;20240;-77
2023/02/10 08:59:21;;;;;;;88.22;35.13;;;;;;;;;;5038357;28;20420;-77
2023/02/10 09:01:47;;;;;;;80.00;37.03;;;;;;;;;;5037704;28;20182;-77
2023/02/10 09:04:13;;;;;;;74.38;33.53;;;;;;;;;;5037988;28;20459;-76
2023/02/10 09:06:41;;;;;;;74.00;33.10;;;;;;;;;;5037944;28;20205;-79
2023/02/10 09:09:08;;;;;;;69.18;33.80;;;;;;;;;;5037501;28;20412;-78
2023/02/10 09:11:34;;;;;;;79.88;36.30;;;;;;;;;;5037263;28;20197;-79
2023/02/10 09:14:01;;;;;;;69.38;33.10;;;;;;;;;;5036804;28;20177;-78
2023/02/10 09:16:27;;;;;;;78.35;35.45;;;;;;;;;;5037368;28;20181;-79
2023/02/10 09:18:53;;;;;;;71.00;35.33;;;;;;;;;;5035448;28;20183;-78
2023/02/10 09:21:19;;;;;;;69.05;33.83;;;;;;;;;;5037595;28;20177;-78
2023/02/10 09:23:45;;;;;;;60.40;32.85;;;;;;;;;;5036773;28;20181;-79
2023/02/10 09:26:11;;;;;;;66.03;32.57;;;;;;;;;;5036754;28;20284;-79
2023/02/10 09:28:37;;;;;;;75.18;34.92;;;;;;;;;;5037154;28;20765;-78
2023/02/10 09:31:07;;;;;;;64.68;32.25;;;;;;;;;;5036230;28;20516;-78
2023/02/10 09:33:33;;;;;;;58.38;31.00;;;;;;;;;;5036963;28;20238;-79
2023/02/10 09:35:59;;;;;;;61.80;31.40;;;;;;;;;;5036730;28;20185;-78
2023/02/10 09:38:25;;;;;;;63.77;29.90;;;;;;;;;;5069021;28;20174;-78
2023/02/10 09:41:01;;;;;;;61.38;29.52;;;;;;;;;;5036062;28;20421;-77
2023/02/10 09:43:27;;;;;;;57.00;28.65;;;;;;;;;;5037148;28;20223;-78
2023/02/10 09:45:57;;;;;;;58.33;31.00;;;;;;;;;;5037462;28;20693;-77
2023/02/10 09:48:26;;;;;;;59.03;26.70;;;;;;;;;;5037967;28;20404;-78
2023/02/10 09:50:59;;;;;;;60.03;29.88;;;;;;;;;;5037528;28;20268;-78
2023/02/10 09:53:27;;;;;;;51.20;27.13;;;;;;;;;;5037764;28;20160;-78
2023/02/10 09:55:57;;;;;;;53.70;28.50;;;;;;;;;;5037423;28;20230;-78
2023/02/10 09:58:23;;;;;;;43.83;25.77;;;;;;;;;;5037601;28;20239;-78
2023/02/10 10:00:52;;;;;;;51.17;27.70;;;;;;;;;;5037152;28;20174;-78
2023/02/10 10:03:20;;;;;;;57.85;28.20;;;;;;;;;;5069539;28;20491;-77
2023/02/10 10:06:05;;;;;;;50.55;26.73;;;;;;;;;;5036949;28;20219;-77
2023/02/10 10:08:49;;;;;;;42.20;24.58;;;;;;;;;;5037786;28;20190;-77
2023/02/10 10:11:22;;;;;;;46.72;25.35;;;;;;;;;;5069765;28;20227;-77
2023/02/10 10:13:48;;;;;;;49.53;27.90;;;;;;;;;;5037712;28;20249;-77
2023/02/10 10:16:14;;;;;;;45.03;22.13;;;;;;;;;;5056545;28;20215;-78
2023/02/10 10:18:52;;;;;;;48.50;24.10;;;;;;;;;;5041024;28;20193;-77
2023/02/10 10:21:51;;;;;;;44.65;25.35;;;;;;;;;;5041191;28;20449;-77
2023/02/10 10:24:32;;;;;;;42.50;23.25;;;;;;;;;;5007756;28;20552;-77
2023/02/10 10:27:21;;;;;;;45.88;23.30;;;;;;;;;;5041002;28;20194;-77
2023/02/10 10:29:54;;;;;;;46.80;24.80;;;;;;;;;;5040509;28;20178;-78
2023/02/10 10:32:46;;;;;;;46.13;25.17;;;;;;;;;;5073773;28;20583;-77
2023/02/10 10:35:22;;;;;;;45.42;25.05;;;;;;;;;;5039528;28;20193;-77
2023/02/10 10:37:48;;;;;;;41.63;22.20;;;;;;;;;;5040842;28;20174;-78
2023/02/10 10:40:17;;;;;;;42.08;23.90;;;;;;;;;;5041167;28;20235;-77
2023/02/10 10:42:48;;;;;;;44.25;24.48;;;;;;;;;;5040995;28;20246;-77
2023/02/10 10:45:23;;;;;;;46.38;26.63;;;;;;;;;;5040786;28;20150;-77
2023/02/10 10:47:53;;;;;;;50.42;23.35;;;;;;;;;;5040796;28;20193;-77
2023/02/10 10:50:21;;;;;;;42.38;23.98;;;;;;;;;;5040868;28;20172;-77
2023/02/10 10:52:51;;;;;;;47.40;23.80;;;;;;;;;;5039927;28;20181;-77
2023/02/10 10:55:38;;;;;;;47.97;26.83;;;;;;;;;;5072555;28;20273;-77
2023/02/10 10:58:08;;;;;;;40.40;23.80;;;;;;;;;;5037013;28;20202;-77
2023/02/10 11:00:34;;;;;;;46.35;25.75;;;;;;;;;;5070985;28;20228;-77
2023/02/10 11:03:01;;;;;;;43.10;24.70;;;;;;;;;;5071083;28;20178;-77
2023/02/10 11:05:29;;;;;;;40.72;21.63;;;;;;;;;;5038124;28;20405;-76
2023/02/10 11:07:57;;;;;;;44.03;25.08;;;;;;;;;;5039073;28;20187;-76
2023/02/10 11:10:43;;;;;;;47.08;25.77;;;;;;;;;;5036842;28;20186;-76
2023/02/10 11:13:17;;;;;;;43.13;24.15;;;;;;;;;;5030763;28;20201;-76
2023/02/10 11:15:44;;;;;;;43.70;25.27;;;;;;;;;;5038559;28;20622;-76
2023/02/10 11:18:18;;;;;;;46.38;25.90;;;;;;;;;;5036562;28;20186;-76
2023/02/10 11:20:53;;;;;;;46.42;25.98;;;;;;;;;;5037906;28;20170;-75
2023/02/10 11:23:19;;;;;;;45.17;26.60;;;;;;;;;;5037717;28;20637;-76
2023/02/10 11:25:56;;;;;;;50.97;27.83;;;;;;;;;;5037576;28;20178;-76
2023/02/10 11:28:24;;;;;;;46.50;26.33;;;;;;;;;;5038377;28;20432;-75
2023/02/10 11:31:06;;;;;;;44.38;23.92;;;;;;;;;;5069782;28;20527;-76
2023/02/10 11:33:34;;;;;;;45.00;23.85;;;;;;;;;;5070574;28;20202;-76
2023/02/10 11:36:07;;;;;;;34.63;22.60;;;;;;;;;;5037873;28;20174;-75
2023/02/10 11:38:34;;;;;;;37.95;22.48;;;;;;;;;;5038000;28;20178;-76
2023/02/10 11:41:01;;;;;;;38.50;22.55;;;;;;;;;;5052430;28;20546;-76
2023/02/10 11:43:31;;;;;;;38.60;21.60;;;;;;;;;;5038239;28;20174;-76
2023/02/10 11:46:02;;;;;;;48.30;24.08;;;;;;;;;;5037468;28;20226;-76
2023/02/10 11:48:29;;;;;;;38.47;22.48;;;;;;;;;;5069824;28;20591;-76
2023/02/10 11:51:14;;;;;;;33.70;21.40;;;;;;;;;;5037737;28;20217;-76
2023/02/10 11:53:40;;;;;;;37.45;22.30;;;;;;;;;;5037710;28;20174;-76
2023/02/10 11:56:06;;;;;;;44.00;22.47;;;;;;;;;;4999390;28;1069458;-76
2023/02/10 12:01:29;;;;;;;33.33;20.08;;;;;;;;;;5038761;28;20166;-76
2023/02/10 12:03:57;;;;;;;41.45;19.95;;;;;;;;;;5038383;28;20161;-76
2023/02/10 12:06:23;;;;;;;31.20;19.02;;;;;;;;;;5038800;28;20545;-76
2023/02/10 12:09:00;;;;;;;35.40;21.47;;;;;;;;;;5038786;28;20174;-76
2023/02/10 12:11:45;;;;;;;30.85;20.02;;;;;;;;;;5038736;28;20392;-76
2023/02/10 12:14:23;;;;;;;40.85;20.67;;;;;;;;;;5038103;28;20186;-76
2023/02/10 12:16:54;;;;;;;38.78;21.15;;;;;;;;;;5038748;28;20189;-76
2023/02/10 12:19:38;;;;;;;34.25;20.75;;;;;;;;;;5038902;28;20679;-76
2023/02/10 12:22:08;;;;;;;31.58;20.90;;;;;;;;;;5070471;28;20530;-76
2023/02/10 12:24:37;;;;;;;27.25;18.50;;;;;;;;;;5038223;28;20182;-76
2023/02/10 12:27:26;;;;;;;31.33;18.15;;;;;;;;;;5070185;28;20636;-76
2023/02/10 12:30:08;;;;;;;35.42;19.85;;;;;;;;;;5037779;28;20163;-77
2023/02/10 12:32:53;;;;;;;28.52;19.40;;;;;;;;;;5038313;28;20200;-76
2023/02/10 12:35:22;;;;;;;24.85;16.73;;;;;;;;;;5038356;28;20204;-76
2023/02/10 12:37:48;;;;;;;29.10;17.08;;;;;;;;;;5036879;28;20189;-76
2023/02/10 12:40:35;;;;;;;29.67;17.88;;;;;;;;;;5038275;28;20162;-76
2023/02/10 12:43:07;;;;;;;24.60;16.90;;;;;;;;;;5038029;28;20162;-76
2023/02/10 12:45:40;;;;;;;27.55;16.80;;;;;;;;;;5037901;28;20178;-76
2023/02/10 12:48:06;;;;;;;24.00;15.15;;;;;;;;;;5037839;28;20166;-76
2023/02/10 12:50:51;;;;;;;24.37;14.67;;;;;;;;;;5038064;28;20170;-76
2023/02/10 12:53:23;;;;;;;26.15;16.52;;;;;;;;;;5037584;28;20401;-76
2023/02/10 12:55:56;;;;;;;25.10;14.75;;;;;;;;;;5036847;28;20226;-76
2023/02/10 12:58:35;;;;;;;22.63;13.98;;;;;;;;;;5038271;28;20252;-76
2023/02/10 13:01:19;;;;;;;20.15;14.82;;;;;;;;;;5070472;28;20513;-76
2023/02/10 13:03:48;;;;;;;23.80;13.80;;;;;;;;;;5069812;28;20539;-76
2023/02/10 13:06:33;;;;;;;21.52;14.40;;;;;;;;;;5037196;28;20210;-76
2023/02/10 13:09:03;;;;;;;23.40;14.52;;;;;;;;;;5037628;28;20174;-76
2023/02/10 13:11:36;;;;;;;21.88;13.55;;;;;;;;;;5037956;28;20605;-76
2023/02/10 13:14:05;;;;;;;22.13;13.50;;;;;;;;;;5037404;28;20231;-76
2023/02/10 13:16:33;;;;;;;19.90;13.98;;;;;;;;;;5069330;28;20714;-76
2023/02/10 13:18:59;;;;;;;21.40;14.05;;;;;;;;;;5036904;28;20174;-76
2023/02/10 13:21:31;;;;;;;20.70;14.03;;;;;;;;;;5037192;28;20178;-76
2023/02/10 13:24:16;;;;;;;22.52;13.00;;;;;;;;;;5036547;28;20501;-77
2023/02/10 13:26:56;;;;;;;21.25;12.85;;;;;;;;;;5036742;28;20202;-76
2023/02/10 13:29:27;;;;;;;20.20;14.68;;;;;;;;;;5036895;28;20174;-76
2023/02/10 13:32:11;;;;;;;20.23;12.82;;;;;;;;;;5037005;28;20175;-76
2023/02/10 13:34:45;;;;;;;21.60;15.00;;;;;;;;;;5036170;28;20174;-76
2023/02/10 13:37:23;;;;;;;21.02;14.48;;;;;;;;;;5035990;28;20260;-76
2023/02/10 13:39:51;;;;;;;19.60;14.55;;;;;;;;;;5036950;28;20245;-76
2023/02/10 13:42:20;;;;;;;22.85;15.48;;;;;;;;;;5036519;28;20182;-76
2023/02/10 13:44:46;;;;;;;25.23;15.35;;;;;;;;;;5036406;28;20174;-76
2023/02/10 13:47:35;;;;;;;22.70;15.40;;;;;;;;;;5035165;28;20217;-76
2023/02/10 13:50:04;;;;;;;23.35;13.63;;;;;;;;;;5036175;28;20185;-76
2023/02/10 13:52:32;;;;;;;20.52;15.20;;;;;;;;;;5036705;28;20171;-76
2023/02/10 13:55:10;;;;;;;23.05;13.98;;;;;;;;;;5068225;28;20186;-77
2023/02/10 13:57:37;;;;;;;22.20;14.68;;;;;;;;;;5036683;28;20228;-76
2023/02/10 14:00:12;;;;;;;18.80;13.32;;;;;;;;;;5036109;28;20247;-77
2023/02/10 14:02:38;;;;;;;21.75;14.30;;;;;;;;;;5036571;28;20180;-76
2023/02/10 14:05:12;;;;;;;22.10;12.95;;;;;;;;;;5035988;28;20174;-76
2023/02/10 14:07:38;;;;;;;21.00;13.50;;;;;;;;;;5036531;28;20216;-76
2023/02/10 14:10:28;;;;;;;20.38;11.55;;;;;;;;;;5067716;28;20190;-76
2023/02/10 14:13:13;;;;;;;19.35;13.00;;;;;;;;;;5068494;28;20201;-76
2023/02/10 14:15:40;;;;;;;16.70;11.82;;;;;;;;;;5036482;28;20198;-76
2023/02/10 14:18:21;;;;;;;20.02;12.75;;;;;;;;;;5068915;28;20624;-76
2023/02/10 14:20:48;;;;;;;17.13;12.82;;;;;;;;;;5036740;28;20170;-76
2023/02/10 14:23:22;;;;;;;21.85;11.10;;;;;;;;;;5036332;28;20186;-76
2023/02/10 14:25:48;;;;;;;17.48;11.75;;;;;;;;;;5067823;28;20169;-75
2023/02/10 14:28:22;;;;;;;20.15;12.35;;;;;;;;;;5036619;28;20641;-75
2023/02/10 14:30:52;;;;;;;16.15;12.18;;;;;;;;;;5037047;28;20631;-76